Pacific Baron — VD4360 — position and weather

sailwx.info

Track history (hours):
 
Tides and Currents Weather Stations Pressure Air Temp Water Temp Dewpoint Dewpoint Depression Visibility Wind Speed Wind Dir Waves Ship Positions

Pacific Baron

Last reported at 2017-Oct-12 23:48 UTC. Time now 2017-Oct-18 02:29 UTC.
Position N 50°01' W 125°14'.

Length 18 m.

Type: Fishing. MMSI: 316007088.

Date/timePositionNaut miles runAvg speedWind from/ knotsBaromVisibWave heightAir tempDewpointWater temp
2017-Oct-12 23:48N 50°01' W 125°14'0 0.0
2017-Oct-12 23:30N 50°01' W 125°14'0 0.8
2017-Oct-12 22:58N 50°02' W 125°14'3 5.6
2017-Oct-12 22:30N 50°04' W 125°16'3 0.8
2017-Oct-12 18:31N 50°07' W 125°18'0 9.8
2017-Oct-12 18:30N 50°07' W 125°18'3 2.0
2017-Oct-12 17:03N 50°10' W 125°20'0 0.0
2017-Oct-12 16:51N 50°10' W 125°20'0 0.0
2017-Oct-12 16:30N 50°10' W 125°20'0 0.0
2017-Oct-12 16:00N 50°10' W 125°20'0 0.0
2017-Oct-12 15:24N 50°10' W 125°20'0 0.0
2017-Oct-12 15:00N 50°10' W 125°20'0 0.0
2017-Oct-12 14:27N 50°10' W 125°20'0 0.0
2017-Oct-12 14:00N 50°10' W 125°20'0 0.1
2017-Oct-12 13:30N 50°10' W 125°20'0 0.1
2017-Oct-12 12:54N 50°10' W 125°20'0 0.1
2017-Oct-12 12:27N 50°10' W 125°20'0 0.1
2017-Oct-12 11:51N 50°10' W 125°20'0 0.1
2017-Oct-12 11:24N 50°10' W 125°20'0 0.1
2017-Oct-12 11:00N 50°10' W 125°20'0 0.0
2017-Oct-12 10:30N 50°10' W 125°20'0 0.0
2017-Oct-12 10:00N 50°10' W 125°20'0 0.0
2017-Oct-12 09:30N 50°10' W 125°20'0 0.0
2017-Oct-12 08:54N 50°10' W 125°20'0 0.0
2017-Oct-12 08:30N 50°10' W 125°20'0 0.0
2017-Oct-12 07:57N 50°10' W 125°20'0 0.0
2017-Oct-12 07:27N 50°10' W 125°20'0 0.0
2017-Oct-12 06:51N 50°10' W 125°20'0 0.0
2017-Oct-12 06:27N 50°10' W 125°20'0 0.0
2017-Oct-12 05:57N 50°10' W 125°20'0 0.0
2017-Oct-12 05:30N 50°10' W 125°20'0 0.0
2017-Oct-12 04:57N 50°10' W 125°20'0 0.0
2017-Oct-12 04:27N 50°10' W 125°20'0 0.0
2017-Oct-12 04:00N 50°10' W 125°20'0 0.0
2017-Oct-12 03:30N 50°10' W 125°20'0 0.0
2017-Oct-12 03:00N 50°10' W 125°20'0 0.0
2017-Oct-12 02:27N 50°10' W 125°20'0 0.0
2017-Oct-12 01:51N 50°10' W 125°20'1 4.2
2017-Oct-12 01:30N 50°08' W 125°21'2 1.7
2017-Oct-12 00:09N 50°07' W 125°18'1 8.2
2017-Oct-12 00:00N 50°07' W 125°20'3 0.8
2017-Oct-11 19:30N 50°11' W 125°21'2 4.9
2017-Oct-11 19:00N 50°13' W 125°22'2 4.5
2017-Oct-11 18:27N 50°15' W 125°22'1 0.0
2017-Oct-10 23:35N 50°15' W 125°22'1 8.2
2017-Oct-10 23:27N 50°13' W 125°22'3 7.8
2017-Oct-10 23:00N 50°10' W 125°21'2 3.4
2017-Oct-10 22:30N 50°08' W 125°21'3 4.0
2017-Oct-10 21:45N 50°06' W 125°17'310.0
2017-Oct-10 21:30N 50°04' W 125°16'2 1.6
2017-Oct-10 20:15N 50°02' W 125°15'0 0.0
2017-Oct-10 19:57N 50°02' W 125°15'0 0.0
2017-Oct-10 19:27N 50°02' W 125°15'0 0.0
2017-Oct-10 18:57N 50°02' W 125°15'0 0.0
2017-Oct-10 17:15N 50°02' W 125°15'0 0.0
2017-Oct-10 16:57N 50°02' W 125°15'0 0.0
2017-Oct-10 16:24N 50°02' W 125°15'0 0.1
2017-Oct-10 15:58N 50°02' W 125°15'0 0.0
2017-Oct-10 15:19N 50°02' W 125°15'0 0.0
2017-Oct-10 14:55N 50°02' W 125°15'0 0.0
2017-Oct-10 13:58N 50°02' W 125°15'0 0.0
2017-Oct-10 13:25N 50°02' W 125°15'0 0.0
2017-Oct-10 12:58N 50°02' W 125°15'0 0.0
2017-Oct-10 12:25N 50°02' W 125°15'0 0.0
2017-Oct-10 11:55N 50°02' W 125°15'0 0.0
2017-Oct-10 11:25N 50°02' W 125°15'0 0.0
2017-Oct-10 10:58N 50°02' W 125°15'0 0.0
2017-Oct-10 10:28N 50°02' W 125°15'0 0.0
2017-Oct-10 09:58N 50°02' W 125°15'0 0.0
2017-Oct-10 09:28N 50°02' W 125°15'0 0.0
2017-Oct-10 08:58N 50°02' W 125°15'0 0.0
2017-Oct-10 08:28N 50°02' W 125°15'0 0.0
2017-Oct-10 07:58N 50°02' W 125°15'0 0.0
2017-Oct-10 07:25N 50°02' W 125°15'0 0.0
2017-Oct-10 06:58N 50°02' W 125°15'0 0.0
2017-Oct-10 06:28N 50°02' W 125°15'0 0.0
2017-Oct-10 05:58N 50°02' W 125°15'0 0.0
2017-Oct-10 05:28N 50°02' W 125°15'0 0.0
2017-Oct-10 04:58N 50°02' W 125°15'0 0.0
2017-Oct-10 04:28N 50°02' W 125°15'0 0.0
2017-Oct-10 03:55N 50°02' W 125°15'0 0.0
2017-Oct-10 03:25N 50°02' W 125°15'0 0.0
2017-Oct-10 02:58N 50°02' W 125°15'0 0.0
2017-Oct-10 02:28N 50°02' W 125°15'0 0.0
2017-Oct-10 01:58N 50°02' W 125°15'0 0.0
2017-Oct-10 01:25N 50°02' W 125°15'0 0.0
2017-Oct-10 00:52N 50°02' W 125°15'0 0.0
2017-Oct-10 00:28N 50°02' W 125°15'0 0.0
2017-Oct-09 23:58N 50°02' W 125°15'0 0.0
2017-Oct-09 23:28N 50°02' W 125°15'0 0.0
2017-Oct-09 22:58N 50°02' W 125°15'0 0.0
2017-Oct-09 22:28N 50°02' W 125°15'0 0.0
2017-Oct-09 21:58N 50°02' W 125°15'0 0.0
2017-Oct-09 21:28N 50°02' W 125°15'0 0.0
2017-Oct-09 20:58N 50°02' W 125°15'0 0.0
2017-Oct-09 20:25N 50°02' W 125°15'0 0.1
2017-Oct-09 19:50N 50°02' W 125°15'0 0.1
2017-Oct-09 19:28N 50°02' W 125°15'0 0.1
2017-Oct-09 18:58N 50°02' W 125°15'1 2.5
2017-Oct-09 18:30N 50°03' W 125°15'3 6.6
2017-Oct-09 18:00N 50°06' W 125°17'0 0.2
2017-Oct-09 16:27N 50°07' W 125°17'4 9.5
2017-Oct-09 16:00N 50°03' W 125°15'1 0.9
2017-Oct-09 15:21N 50°02' W 125°15'0 0.0
2017-Oct-09 12:03N 50°02' W 125°15'0 0.0
2017-Oct-09 11:51N 50°02' W 125°15'0 0.0
2017-Oct-09 11:27N 50°02' W 125°15'0 0.0
2017-Oct-09 10:51N 50°02' W 125°15'0 0.0
2017-Oct-09 10:27N 50°02' W 125°15'0 0.0
2017-Oct-09 09:57N 50°02' W 125°15'0 0.0
2017-Oct-09 09:27N 50°02' W 125°15'0 0.0
2017-Oct-09 08:57N 50°02' W 125°15'0 0.0
2017-Oct-09 08:27N 50°02' W 125°15'0 0.0
2017-Oct-09 07:51N 50°02' W 125°15'0 0.0
2017-Oct-09 07:27N 50°02' W 125°15'0 0.0
2017-Oct-09 06:57N 50°02' W 125°15'0 0.0
2017-Oct-09 06:27N 50°02' W 125°15'0 0.0
2017-Oct-09 05:57N 50°02' W 125°15'0 0.0
2017-Oct-09 05:27N 50°02' W 125°15'0 0.0
2017-Oct-09 04:57N 50°02' W 125°15'0 0.0
2017-Oct-09 04:27N 50°02' W 125°15'0 0.0
2017-Oct-09 03:57N 50°02' W 125°15'0 0.0
2017-Oct-09 03:03N 50°02' W 125°15'0 0.0
2017-Oct-09 02:39N 50°02' W 125°15'0 0.0
2017-Oct-09 02:27N 50°02' W 125°15'0 0.0
2017-Oct-09 00:21N 50°02' W 125°15'0 0.0
2017-Oct-08 23:51N 50°02' W 125°15'0 0.0
2017-Oct-08 23:21N 50°02' W 125°15'0 0.0
2017-Oct-08 22:57N 50°02' W 125°15'0 0.0
2017-Oct-08 22:27N 50°02' W 125°15'0 0.0
2017-Oct-08 21:39N 50°02' W 125°15'0 0.0
2017-Oct-08 21:27N 50°02' W 125°15'0 0.0
2017-Oct-08 20:57N 50°02' W 125°15'0 0.0
2017-Oct-08 20:27N 50°02' W 125°15'0 0.0
2017-Oct-08 19:57N 50°02' W 125°15'0 0.0
2017-Oct-08 19:27N 50°02' W 125°15'0 0.0
2017-Oct-08 18:57N 50°02' W 125°15'0 0.0
2017-Oct-08 18:27N 50°02' W 125°15'0 0.0
2017-Oct-08 17:57N 50°02' W 125°15'0 0.0
2017-Oct-08 17:27N 50°02' W 125°15'0 0.0
2017-Oct-08 16:57N 50°02' W 125°15'0 0.0
2017-Oct-08 16:27N 50°02' W 125°15'0 0.0
2017-Oct-08 15:51N 50°02' W 125°15'0 0.0
2017-Oct-08 15:27N 50°02' W 125°15'0 0.0
2017-Oct-08 14:39N 50°02' W 125°15'0 0.0
2017-Oct-08 14:21N 50°02' W 125°15'0 0.0
2017-Oct-08 13:57N 50°02' W 125°15'0 0.0
2017-Oct-08 13:27N 50°02' W 125°15'0 0.0
2017-Oct-08 12:57N 50°02' W 125°15'0 0.0
2017-Oct-08 09:57N 50°02' W 125°15'0 0.0
2017-Oct-08 09:03N 50°02' W 125°15'0 0.0
2017-Oct-08 08:51N 50°02' W 125°15'0 0.0
2017-Oct-08 08:27N 50°02' W 125°15'0 0.0
2017-Oct-08 07:57N 50°02' W 125°15'0 0.0
2017-Oct-08 07:27N 50°02' W 125°15'0 0.0
2017-Oct-08 06:45N 50°02' W 125°15'0 0.0
2017-Oct-08 06:21N 50°02' W 125°15'0 0.0
2017-Oct-08 05:51N 50°02' W 125°15'0 0.0
2017-Oct-08 05:27N 50°02' W 125°15'0 0.0
2017-Oct-08 04:45N 50°02' W 125°15'0 0.0
2017-Oct-08 04:27N 50°02' W 125°15'0 0.0
2017-Oct-08 03:57N 50°02' W 125°15'0 0.0
2017-Oct-08 03:27N 50°02' W 125°15'0 0.0
2017-Oct-08 02:57N 50°02' W 125°15'0 0.0
2017-Oct-08 02:27N 50°02' W 125°15'0 0.0
2017-Oct-08 01:57N 50°02' W 125°15'0 0.0
2017-Oct-08 01:21N 50°02' W 125°15'0 0.0
2017-Oct-08 00:45N 50°02' W 125°15'0 0.0
2017-Oct-08 00:21N 50°02' W 125°15'0 0.0
2017-Oct-07 23:59N 50°02' W 125°15'5 1.4
2017-Oct-07 20:32N 50°07' W 125°18'0 8.6
2017-Oct-07 20:30N 50°07' W 125°18'3 6.0
2017-Oct-07 20:00N 50°09' W 125°21'1 1.5
2017-Oct-07 19:25N 50°10' W 125°20'0 0.1
2017-Oct-07 18:56N 50°10' W 125°20'0 0.1
2017-Oct-07 18:27N 50°10' W 125°20'0 0.0
2017-Oct-07 17:57N 50°10' W 125°20'0 0.0
2017-Oct-07 17:27N 50°10' W 125°20'0 0.0
2017-Oct-07 17:00N 50°10' W 125°20'0 0.0
2017-Oct-07 16:21N 50°10' W 125°20'0 0.0
2017-Oct-07 15:57N 50°10' W 125°20'0 0.0
2017-Oct-07 15:24N 50°10' W 125°20'0 0.0
2017-Oct-07 15:00N 50°10' W 125°20'0 0.0
2017-Oct-07 14:27N 50°10' W 125°20'0 0.0
2017-Oct-07 14:00N 50°10' W 125°20'0 0.0
2017-Oct-07 12:33N 50°10' W 125°20'0 0.0
2017-Oct-07 11:39N 50°10' W 125°20'0 0.0
2017-Oct-07 11:21N 50°10' W 125°20'0 0.0
2017-Oct-07 10:57N 50°10' W 125°20'0 0.0
2017-Oct-07 10:21N 50°10' W 125°20'0 0.0
2017-Oct-07 09:57N 50°10' W 125°20'0 0.0
2017-Oct-07 09:30N 50°10' W 125°20'0 0.0
2017-Oct-07 09:00N 50°10' W 125°20'0 0.0
2017-Oct-07 08:24N 50°10' W 125°20'0 0.0
2017-Oct-07 08:00N 50°10' W 125°20'0 0.0
2017-Oct-07 07:27N 50°10' W 125°20'0 0.0
2017-Oct-07 06:45N 50°10' W 125°20'0 0.0
2017-Oct-07 06:27N 50°10' W 125°20'0 0.0
2017-Oct-07 05:54N 50°10' W 125°20'0 0.0
2017-Oct-07 05:30N 50°10' W 125°20'0 0.0
2017-Oct-07 05:00N 50°10' W 125°20'0 0.0
2017-Oct-07 04:28N 50°10' W 125°20'2 4.2
2017-Oct-07 04:00N 50°11' W 125°22'2 3.4
2017-Oct-07 03:26N 50°13' W 125°23'3 5.5
2017-Oct-07 02:58N 50°16' W 125°24'3 0.5
2017-Oct-06 19:44N 50°19' W 125°26'4 9.2
2017-Oct-06 19:20N 50°15' W 125°23'3 8.7
2017-Oct-06 19:00N 50°13' W 125°22'2 3.5
2017-Oct-06 18:30N 50°11' W 125°21'1 1.8
2017-Oct-06 18:00N 50°12' W 125°21'3 0.3
2017-Oct-06 08:17N 50°15' W 125°21'0 0.0
2017-Oct-06 06:53N 50°15' W 125°21'0 0.0
2017-Oct-06 06:26N 50°15' W 125°21'0 0.1
2017-Oct-06 05:56N 50°15' W 125°21'0 0.1
2017-Oct-06 05:23N 50°15' W 125°21'0 0.1
2017-Oct-06 02:03N 50°15' W 125°22'0 7.6
2017-Oct-06 02:00N 50°15' W 125°22'4 5.6
2017-Oct-06 01:18N 50°11' W 125°21'0 0.3
2017-Oct-06 00:20N 50°11' W 125°21'0 0.2
2017-Oct-06 00:00N 50°11' W 125°21'3 4.9
2017-Oct-05 23:28N 50°08' W 125°21'0 0.0
2017-Oct-05 22:55N 50°08' W 125°21'0 0.0
2017-Oct-05 22:28N 50°08' W 125°21'0 0.0
2017-Oct-05 21:55N 50°08' W 125°21'0 0.0
2017-Oct-05 21:25N 50°08' W 125°21'0 0.0
2017-Oct-05 20:58N 50°08' W 125°21'0 0.0
2017-Oct-05 20:28N 50°08' W 125°21'1 1.1
2017-Oct-05 20:00N 50°08' W 125°21'3 3.2
2017-Oct-05 18:58N 50°06' W 125°17'4 8.7
2017-Oct-05 18:30N 50°02' W 125°14'0 0.2
2017-Oct-05 17:43N 50°02' W 125°15'0 0.0
2017-Oct-05 17:25N 50°02' W 125°15'0 0.0
2017-Oct-05 14:43N 50°02' W 125°15'0 0.0
2017-Oct-05 14:19N 50°02' W 125°15'0 0.0
2017-Oct-05 13:55N 50°02' W 125°15'0 0.0
2017-Oct-05 13:25N 50°02' W 125°15'0 0.0
2017-Oct-05 12:55N 50°02' W 125°15'0 0.0
2017-Oct-05 12:25N 50°02' W 125°15'0 0.0
2017-Oct-05 11:55N 50°02' W 125°15'0 0.0
2017-Oct-05 11:25N 50°02' W 125°15'0 0.0
2017-Oct-05 10:55N 50°02' W 125°15'0 0.0
2017-Oct-05 10:25N 50°02' W 125°15'0 0.0
2017-Oct-05 09:55N 50°02' W 125°15'0 0.0
2017-Oct-05 09:19N 50°02' W 125°15'0 0.0
2017-Oct-05 08:55N 50°02' W 125°15'0 0.0
2017-Oct-05 08:13N 50°02' W 125°15'0 0.0
2017-Oct-05 07:55N 50°02' W 125°15'0 0.0
2017-Oct-05 07:25N 50°02' W 125°15'0 0.0
2017-Oct-05 06:55N 50°02' W 125°15'0 0.0
2017-Oct-05 06:25N 50°02' W 125°15'0 0.0
2017-Oct-05 05:55N 50°02' W 125°15'0 0.0
2017-Oct-05 05:25N 50°02' W 125°15'0 0.0
2017-Oct-05 04:55N 50°02' W 125°15'0 0.0
2017-Oct-05 04:25N 50°02' W 125°15'0 0.0
2017-Oct-05 03:55N 50°02' W 125°15'0 0.0
2017-Oct-05 03:25N 50°02' W 125°15'0 0.0
2017-Oct-05 02:55N 50°02' W 125°15'0 0.0
2017-Oct-05 02:25N 50°02' W 125°15'0 0.0
2017-Oct-05 01:55N 50°02' W 125°15'0 0.0
2017-Oct-05 01:25N 50°02' W 125°15'0 0.0
2017-Oct-05 00:58N 50°02' W 125°15'0 0.0
2017-Oct-05 00:19N 50°02' W 125°15'0 0.0
2017-Oct-04 23:58N 50°02' W 125°15'0 0.0
2017-Oct-04 23:25N 50°02' W 125°15'0 0.0
2017-Oct-04 22:55N 50°02' W 125°15'0 0.0
2017-Oct-04 22:25N 50°02' W 125°15'0 0.0
2017-Oct-04 21:55N 50°02' W 125°15'0 0.0
2017-Oct-04 21:25N 50°02' W 125°15'0 0.0
2017-Oct-04 20:13N 50°02' W 125°15'0 0.0
2017-Oct-04 19:55N 50°02' W 125°15'0 0.0
2017-Oct-04 19:25N 50°02' W 125°15'0 0.0
2017-Oct-04 18:49N 50°02' W 125°15'0 0.1
2017-Oct-04 18:30N 50°02' W 125°15'4 7.9
2017-Oct-04 18:00N 50°06' W 125°17'1 0.6
2017-Oct-04 16:55N 50°06' W 125°17'410.6
2017-Oct-04 16:30N 50°02' W 125°14'1 2.1
2017-Oct-04 16:00N 50°01' W 125°14'0 0.0
2017-Oct-04 15:30N 50°01' W 125°14'0 0.0
2017-Oct-04 14:54N 50°01' W 125°14'0 0.0
2017-Oct-04 14:30N 50°01' W 125°14'0 0.0
2017-Oct-04 13:36N 50°01' W 125°14'0 0.0
2017-Oct-04 13:30N 50°01' W 125°14'0 0.0
2017-Oct-04 13:00N 50°01' W 125°14'0 0.0
2017-Oct-04 12:30N 50°01' W 125°14'0 0.0
2017-Oct-04 11:51N 50°01' W 125°14'0 0.0
2017-Oct-04 11:27N 50°01' W 125°14'0 0.0
2017-Oct-04 10:57N 50°01' W 125°14'0 0.0
2017-Oct-04 10:30N 50°01' W 125°14'0 0.0
2017-Oct-04 09:57N 50°01' W 125°14'0 0.0
2017-Oct-04 09:30N 50°01' W 125°14'0 0.0
2017-Oct-04 08:57N 50°01' W 125°14'0 0.0
2017-Oct-04 08:30N 50°01' W 125°14'0 0.0
2017-Oct-04 08:00N 50°01' W 125°14'0 0.0
2017-Oct-04 07:30N 50°01' W 125°14'0 0.0
2017-Oct-04 07:00N 50°01' W 125°14'0 0.0
2017-Oct-04 06:30N 50°01' W 125°14'0 0.0
2017-Oct-04 06:00N 50°01' W 125°14'0 0.0
2017-Oct-04 05:30N 50°01' W 125°14'0 0.0
2017-Oct-04 05:00N 50°01' W 125°14'0 0.0
2017-Oct-04 04:30N 50°01' W 125°14'0 0.0
2017-Oct-04 04:00N 50°01' W 125°14'0 0.0
2017-Oct-04 03:30N 50°01' W 125°14'0 0.0
2017-Oct-04 03:00N 50°01' W 125°14'0 0.0
2017-Oct-04 02:12N 50°01' W 125°14'0 0.0
2017-Oct-04 02:00N 50°01' W 125°14'0 0.0
2017-Oct-04 00:39N 50°01' W 125°14'0 0.0
2017-Oct-04 00:15N 50°01' W 125°14'0 0.0
2017-Oct-03 23:51N 50°01' W 125°14'0 0.0
2017-Oct-03 22:51N 50°01' W 125°14'0 0.0
2017-Oct-03 22:27N 50°01' W 125°14'0 0.0
2017-Oct-03 21:45N 50°01' W 125°14'0 0.0
2017-Oct-03 21:27N 50°01' W 125°14'0 0.0
2017-Oct-03 20:57N 50°01' W 125°14'0 0.0
2017-Oct-03 20:27N 50°01' W 125°14'0 0.0
2017-Oct-03 20:00N 50°01' W 125°14'0 0.0
2017-Oct-03 19:30N 50°01' W 125°14'0 0.0
2017-Oct-03 19:00N 50°01' W 125°14'0 0.0
2017-Oct-03 18:30N 50°01' W 125°14'0 0.0
2017-Oct-03 18:00N 50°01' W 125°14'0 0.0
2017-Oct-03 17:30N 50°01' W 125°14'0 0.0
2017-Oct-03 17:00N 50°01' W 125°14'0 0.0
2017-Oct-03 16:30N 50°01' W 125°14'0 0.0
2017-Oct-03 16:00N 50°01' W 125°14'0 0.0
2017-Oct-03 15:18N 50°01' W 125°14'0 0.0
2017-Oct-03 15:00N 50°01' W 125°14'0 0.0
2017-Oct-03 14:00N 50°01' W 125°14'0 0.0
2017-Oct-03 13:30N 50°01' W 125°14'0 0.0
2017-Oct-03 13:00N 50°01' W 125°14'0 0.0
2017-Oct-03 12:24N 50°01' W 125°14'0 0.0
2017-Oct-03 12:00N 50°01' W 125°14'0 0.0
2017-Oct-03 11:21N 50°01' W 125°14'0 0.0
2017-Oct-03 10:54N 50°01' W 125°14'0 0.0
2017-Oct-03 10:00N 50°01' W 125°14'0 0.0
2017-Oct-03 09:21N 50°01' W 125°14'0 0.0
2017-Oct-03 09:00N 50°01' W 125°14'0 0.0
2017-Oct-03 08:30N 50°01' W 125°14'0 0.0
2017-Oct-03 08:00N 50°01' W 125°14'0 0.0
2017-Oct-03 07:30N 50°01' W 125°14'0 0.0
2017-Oct-03 07:00N 50°01' W 125°14'0 0.0
2017-Oct-03 06:30N 50°01' W 125°14'0 0.0
2017-Oct-03 06:00N 50°01' W 125°14'0 0.0
2017-Oct-03 05:30N 50°01' W 125°14'0 0.0
2017-Oct-03 05:00N 50°01' W 125°14'0 0.0
2017-Oct-03 04:30N 50°01' W 125°14'0 0.0
2017-Oct-03 04:00N 50°01' W 125°14'0 0.0
2017-Oct-03 03:30N 50°01' W 125°14'0 0.0
2017-Oct-03 02:48N 50°01' W 125°14'0 0.0
2017-Oct-03 02:30N 50°01' W 125°14'0 0.0
2017-Oct-03 02:00N 50°01' W 125°14'0 0.0
2017-Oct-03 01:24N 50°01' W 125°14'0 0.0
2017-Oct-03 01:00N 50°01' W 125°14'0 0.0
2017-Oct-03 00:30N 50°01' W 125°14'0 0.0
2017-Oct-02 23:57N 50°01' W 125°14'  
Track history (hours):
 
Tides and Currents Weather Stations Pressure Air Temp Water Temp Dewpoint Dewpoint Depression Visibility Wind Speed Wind Dir Waves Ship Positions

Pacific Baron

Last reported at 2017-Oct-12 23:48 UTC. Time now 2017-Oct-18 02:29 UTC.
Position N 50°01' W 125°14'.

Length 18 m.

Type: Fishing. MMSI: 316007088.

Date/timePositionNaut miles runAvg speedWind from/ knotsBaromVisibWave heightAir tempDewpointWater temp
2017-Oct-12 23:48N 50°01' W 125°14'0 0.0
2017-Oct-12 23:30N 50°01' W 125°14'0 0.8
2017-Oct-12 22:58N 50°02' W 125°14'3 5.6
2017-Oct-12 22:30N 50°04' W 125°16'3 0.8
2017-Oct-12 18:31N 50°07' W 125°18'0 9.8
2017-Oct-12 18:30N 50°07' W 125°18'3 2.0
2017-Oct-12 17:03N 50°10' W 125°20'0 0.0
2017-Oct-12 16:51N 50°10' W 125°20'0 0.0
2017-Oct-12 16:30N 50°10' W 125°20'0 0.0
2017-Oct-12 16:00N 50°10' W 125°20'0 0.0
2017-Oct-12 15:24N 50°10' W 125°20'0 0.0
2017-Oct-12 15:00N 50°10' W 125°20'0 0.0
2017-Oct-12 14:27N 50°10' W 125°20'0 0.0
2017-Oct-12 14:00N 50°10' W 125°20'0 0.1
2017-Oct-12 13:30N 50°10' W 125°20'0 0.1
2017-Oct-12 12:54N 50°10' W 125°20'0 0.1
2017-Oct-12 12:27N 50°10' W 125°20'0 0.1
2017-Oct-12 11:51N 50°10' W 125°20'0 0.1
2017-Oct-12 11:24N 50°10' W 125°20'0 0.1
2017-Oct-12 11:00N 50°10' W 125°20'0 0.0
2017-Oct-12 10:30N 50°10' W 125°20'0 0.0
2017-Oct-12 10:00N 50°10' W 125°20'0 0.0
2017-Oct-12 09:30N 50°10' W 125°20'0 0.0
2017-Oct-12 08:54N 50°10' W 125°20'0 0.0
2017-Oct-12 08:30N 50°10' W 125°20'0 0.0
2017-Oct-12 07:57N 50°10' W 125°20'0 0.0
2017-Oct-12 07:27N 50°10' W 125°20'0 0.0
2017-Oct-12 06:51N 50°10' W 125°20'0 0.0
2017-Oct-12 06:27N 50°10' W 125°20'0 0.0
2017-Oct-12 05:57N 50°10' W 125°20'0 0.0
2017-Oct-12 05:30N 50°10' W 125°20'0 0.0
2017-Oct-12 04:57N 50°10' W 125°20'0 0.0
2017-Oct-12 04:27N 50°10' W 125°20'0 0.0
2017-Oct-12 04:00N 50°10' W 125°20'0 0.0
2017-Oct-12 03:30N 50°10' W 125°20'0 0.0
2017-Oct-12 03:00N 50°10' W 125°20'0 0.0
2017-Oct-12 02:27N 50°10' W 125°20'0 0.0
2017-Oct-12 01:51N 50°10' W 125°20'1 4.2
2017-Oct-12 01:30N 50°08' W 125°21'2 1.7
2017-Oct-12 00:09N 50°07' W 125°18'1 8.2
2017-Oct-12 00:00N 50°07' W 125°20'3 0.8
2017-Oct-11 19:30N 50°11' W 125°21'2 4.9
2017-Oct-11 19:00N 50°13' W 125°22'2 4.5
2017-Oct-11 18:27N 50°15' W 125°22'1 0.0
2017-Oct-10 23:35N 50°15' W 125°22'1 8.2
2017-Oct-10 23:27N 50°13' W 125°22'3 7.8
2017-Oct-10 23:00N 50°10' W 125°21'2 3.4
2017-Oct-10 22:30N 50°08' W 125°21'3 4.0
2017-Oct-10 21:45N 50°06' W 125°17'310.0
2017-Oct-10 21:30N 50°04' W 125°16'2 1.6
2017-Oct-10 20:15N 50°02' W 125°15'0 0.0
2017-Oct-10 19:57N 50°02' W 125°15'0 0.0
2017-Oct-10 19:27N 50°02' W 125°15'0 0.0
2017-Oct-10 18:57N 50°02' W 125°15'0 0.0
2017-Oct-10 17:15N 50°02' W 125°15'0 0.0
2017-Oct-10 16:57N 50°02' W 125°15'0 0.0
2017-Oct-10 16:24N 50°02' W 125°15'0 0.1
2017-Oct-10 15:58N 50°02' W 125°15'0 0.0
2017-Oct-10 15:19N 50°02' W 125°15'0 0.0
2017-Oct-10 14:55N 50°02' W 125°15'0 0.0
2017-Oct-10 13:58N 50°02' W 125°15'0 0.0
2017-Oct-10 13:25N 50°02' W 125°15'0 0.0
2017-Oct-10 12:58N 50°02' W 125°15'0 0.0
2017-Oct-10 12:25N 50°02' W 125°15'0 0.0
2017-Oct-10 11:55N 50°02' W 125°15'0 0.0
2017-Oct-10 11:25N 50°02' W 125°15'0 0.0
2017-Oct-10 10:58N 50°02' W 125°15'0 0.0
2017-Oct-10 10:28N 50°02' W 125°15'0 0.0
2017-Oct-10 09:58N 50°02' W 125°15'0 0.0
2017-Oct-10 09:28N 50°02' W 125°15'0 0.0
2017-Oct-10 08:58N 50°02' W 125°15'0 0.0
2017-Oct-10 08:28N 50°02' W 125°15'0 0.0
2017-Oct-10 07:58N 50°02' W 125°15'0 0.0
2017-Oct-10 07:25N 50°02' W 125°15'0 0.0
2017-Oct-10 06:58N 50°02' W 125°15'0 0.0
2017-Oct-10 06:28N 50°02' W 125°15'0 0.0
2017-Oct-10 05:58N 50°02' W 125°15'0 0.0
2017-Oct-10 05:28N 50°02' W 125°15'0 0.0
2017-Oct-10 04:58N 50°02' W 125°15'0 0.0
2017-Oct-10 04:28N 50°02' W 125°15'0 0.0
2017-Oct-10 03:55N 50°02' W 125°15'0 0.0
2017-Oct-10 03:25N 50°02' W 125°15'0 0.0
2017-Oct-10 02:58N 50°02' W 125°15'0 0.0
2017-Oct-10 02:28N 50°02' W 125°15'0 0.0
2017-Oct-10 01:58N 50°02' W 125°15'0 0.0
2017-Oct-10 01:25N 50°02' W 125°15'0 0.0
2017-Oct-10 00:52N 50°02' W 125°15'0 0.0
2017-Oct-10 00:28N 50°02' W 125°15'0 0.0
2017-Oct-09 23:58N 50°02' W 125°15'0 0.0
2017-Oct-09 23:28N 50°02' W 125°15'0 0.0
2017-Oct-09 22:58N 50°02' W 125°15'0 0.0
2017-Oct-09 22:28N 50°02' W 125°15'0 0.0
2017-Oct-09 21:58N 50°02' W 125°15'0 0.0
2017-Oct-09 21:28N 50°02' W 125°15'0 0.0
2017-Oct-09 20:58N 50°02' W 125°15'0 0.0
2017-Oct-09 20:25N 50°02' W 125°15'0 0.1
2017-Oct-09 19:50N 50°02' W 125°15'0 0.1
2017-Oct-09 19:28N 50°02' W 125°15'0 0.1
2017-Oct-09 18:58N 50°02' W 125°15'1 2.5
2017-Oct-09 18:30N 50°03' W 125°15'3 6.6
2017-Oct-09 18:00N 50°06' W 125°17'0 0.2
2017-Oct-09 16:27N 50°07' W 125°17'4 9.5
2017-Oct-09 16:00N 50°03' W 125°15'1 0.9
2017-Oct-09 15:21N 50°02' W 125°15'0 0.0
2017-Oct-09 12:03N 50°02' W 125°15'0 0.0
2017-Oct-09 11:51N 50°02' W 125°15'0 0.0
2017-Oct-09 11:27N 50°02' W 125°15'0 0.0
2017-Oct-09 10:51N 50°02' W 125°15'0 0.0
2017-Oct-09 10:27N 50°02' W 125°15'0 0.0
2017-Oct-09 09:57N 50°02' W 125°15'0 0.0
2017-Oct-09 09:27N 50°02' W 125°15'0 0.0
2017-Oct-09 08:57N 50°02' W 125°15'0 0.0
2017-Oct-09 08:27N 50°02' W 125°15'0 0.0
2017-Oct-09 07:51N 50°02' W 125°15'0 0.0
2017-Oct-09 07:27N 50°02' W 125°15'0 0.0
2017-Oct-09 06:57N 50°02' W 125°15'0 0.0
2017-Oct-09 06:27N 50°02' W 125°15'0 0.0
2017-Oct-09 05:57N 50°02' W 125°15'0 0.0
2017-Oct-09 05:27N 50°02' W 125°15'0 0.0
2017-Oct-09 04:57N 50°02' W 125°15'0 0.0
2017-Oct-09 04:27N 50°02' W 125°15'0 0.0
2017-Oct-09 03:57N 50°02' W 125°15'0 0.0
2017-Oct-09 03:03N 50°02' W 125°15'0 0.0
2017-Oct-09 02:39N 50°02' W 125°15'0 0.0
2017-Oct-09 02:27N 50°02' W 125°15'0 0.0
2017-Oct-09 00:21N 50°02' W 125°15'0 0.0
2017-Oct-08 23:51N 50°02' W 125°15'0 0.0
2017-Oct-08 23:21N 50°02' W 125°15'0 0.0
2017-Oct-08 22:57N 50°02' W 125°15'0 0.0
2017-Oct-08 22:27N 50°02' W 125°15'0 0.0
2017-Oct-08 21:39N 50°02' W 125°15'0 0.0
2017-Oct-08 21:27N 50°02' W 125°15'0 0.0
2017-Oct-08 20:57N 50°02' W 125°15'0 0.0
2017-Oct-08 20:27N 50°02' W 125°15'0 0.0
2017-Oct-08 19:57N 50°02' W 125°15'0 0.0
2017-Oct-08 19:27N 50°02' W 125°15'0 0.0
2017-Oct-08 18:57N 50°02' W 125°15'0 0.0
2017-Oct-08 18:27N 50°02' W 125°15'0 0.0
2017-Oct-08 17:57N 50°02' W 125°15'0 0.0
2017-Oct-08 17:27N 50°02' W 125°15'0 0.0
2017-Oct-08 16:57N 50°02' W 125°15'0 0.0
2017-Oct-08 16:27N 50°02' W 125°15'0 0.0
2017-Oct-08 15:51N 50°02' W 125°15'0 0.0
2017-Oct-08 15:27N 50°02' W 125°15'0 0.0
2017-Oct-08 14:39N 50°02' W 125°15'0 0.0
2017-Oct-08 14:21N 50°02' W 125°15'0 0.0
2017-Oct-08 13:57N 50°02' W 125°15'0 0.0
2017-Oct-08 13:27N 50°02' W 125°15'0 0.0
2017-Oct-08 12:57N 50°02' W 125°15'0 0.0
2017-Oct-08 09:57N 50°02' W 125°15'0 0.0
2017-Oct-08 09:03N 50°02' W 125°15'0 0.0
2017-Oct-08 08:51N 50°02' W 125°15'0 0.0
2017-Oct-08 08:27N 50°02' W 125°15'0 0.0
2017-Oct-08 07:57N 50°02' W 125°15'0 0.0
2017-Oct-08 07:27N 50°02' W 125°15'0 0.0
2017-Oct-08 06:45N 50°02' W 125°15'0 0.0
2017-Oct-08 06:21N 50°02' W 125°15'0 0.0
2017-Oct-08 05:51N 50°02' W 125°15'0 0.0
2017-Oct-08 05:27N 50°02' W 125°15'0 0.0
2017-Oct-08 04:45N 50°02' W 125°15'0 0.0
2017-Oct-08 04:27N 50°02' W 125°15'0 0.0
2017-Oct-08 03:57N 50°02' W 125°15'0 0.0
2017-Oct-08 03:27N 50°02' W 125°15'0 0.0
2017-Oct-08 02:57N 50°02' W 125°15'0 0.0
2017-Oct-08 02:27N 50°02' W 125°15'0 0.0
2017-Oct-08 01:57N 50°02' W 125°15'0 0.0
2017-Oct-08 01:21N 50°02' W 125°15'0 0.0
2017-Oct-08 00:45N 50°02' W 125°15'0 0.0
2017-Oct-08 00:21N 50°02' W 125°15'0 0.0
2017-Oct-07 23:59N 50°02' W 125°15'5 1.4
2017-Oct-07 20:32N 50°07' W 125°18'0 8.6
2017-Oct-07 20:30N 50°07' W 125°18'3 6.0
2017-Oct-07 20:00N 50°09' W 125°21'1 1.5
2017-Oct-07 19:25N 50°10' W 125°20'0 0.1
2017-Oct-07 18:56N 50°10' W 125°20'0 0.1
2017-Oct-07 18:27N 50°10' W 125°20'0 0.0
2017-Oct-07 17:57N 50°10' W 125°20'0 0.0
2017-Oct-07 17:27N 50°10' W 125°20'0 0.0
2017-Oct-07 17:00N 50°10' W 125°20'0 0.0
2017-Oct-07 16:21N 50°10' W 125°20'0 0.0
2017-Oct-07 15:57N 50°10' W 125°20'0 0.0
2017-Oct-07 15:24N 50°10' W 125°20'0 0.0
2017-Oct-07 15:00N 50°10' W 125°20'0 0.0
2017-Oct-07 14:27N 50°10' W 125°20'0 0.0
2017-Oct-07 14:00N 50°10' W 125°20'0 0.0
2017-Oct-07 12:33N 50°10' W 125°20'0 0.0
2017-Oct-07 11:39N 50°10' W 125°20'0 0.0
2017-Oct-07 11:21N 50°10' W 125°20'0 0.0
2017-Oct-07 10:57N 50°10' W 125°20'0 0.0
2017-Oct-07 10:21N 50°10' W 125°20'0 0.0
2017-Oct-07 09:57N 50°10' W 125°20'0 0.0
2017-Oct-07 09:30N 50°10' W 125°20'0 0.0
2017-Oct-07 09:00N 50°10' W 125°20'0 0.0
2017-Oct-07 08:24N 50°10' W 125°20'0 0.0
2017-Oct-07 08:00N 50°10' W 125°20'0 0.0
2017-Oct-07 07:27N 50°10' W 125°20'0 0.0
2017-Oct-07 06:45N 50°10' W 125°20'0 0.0
2017-Oct-07 06:27N 50°10' W 125°20'0 0.0
2017-Oct-07 05:54N 50°10' W 125°20'0 0.0
2017-Oct-07 05:30N 50°10' W 125°20'0 0.0
2017-Oct-07 05:00N 50°10' W 125°20'0 0.0
2017-Oct-07 04:28N 50°10' W 125°20'2 4.2
2017-Oct-07 04:00N 50°11' W 125°22'2 3.4
2017-Oct-07 03:26N 50°13' W 125°23'3 5.5
2017-Oct-07 02:58N 50°16' W 125°24'3 0.5
2017-Oct-06 19:44N 50°19' W 125°26'4 9.2
2017-Oct-06 19:20N 50°15' W 125°23'3 8.7
2017-Oct-06 19:00N 50°13' W 125°22'2 3.5
2017-Oct-06 18:30N 50°11' W 125°21'1 1.8
2017-Oct-06 18:00N 50°12' W 125°21'3 0.3
2017-Oct-06 08:17N 50°15' W 125°21'0 0.0
2017-Oct-06 06:53N 50°15' W 125°21'0 0.0
2017-Oct-06 06:26N 50°15' W 125°21'0 0.1
2017-Oct-06 05:56N 50°15' W 125°21'0 0.1
2017-Oct-06 05:23N 50°15' W 125°21'0 0.1
2017-Oct-06 02:03N 50°15' W 125°22'0 7.6
2017-Oct-06 02:00N 50°15' W 125°22'4 5.6
2017-Oct-06 01:18N 50°11' W 125°21'0 0.3
2017-Oct-06 00:20N 50°11' W 125°21'0 0.2
2017-Oct-06 00:00N 50°11' W 125°21'3 4.9
2017-Oct-05 23:28N 50°08' W 125°21'0 0.0
2017-Oct-05 22:55N 50°08' W 125°21'0 0.0
2017-Oct-05 22:28N 50°08' W 125°21'0 0.0
2017-Oct-05 21:55N 50°08' W 125°21'0 0.0
2017-Oct-05 21:25N 50°08' W 125°21'0 0.0
2017-Oct-05 20:58N 50°08' W 125°21'0 0.0
2017-Oct-05 20:28N 50°08' W 125°21'1 1.1
2017-Oct-05 20:00N 50°08' W 125°21'3 3.2
2017-Oct-05 18:58N 50°06' W 125°17'4 8.7
2017-Oct-05 18:30N 50°02' W 125°14'0 0.2
2017-Oct-05 17:43N 50°02' W 125°15'0 0.0
2017-Oct-05 17:25N 50°02' W 125°15'0 0.0
2017-Oct-05 14:43N 50°02' W 125°15'0 0.0
2017-Oct-05 14:19N 50°02' W 125°15'0 0.0
2017-Oct-05 13:55N 50°02' W 125°15'0 0.0
2017-Oct-05 13:25N 50°02' W 125°15'0 0.0
2017-Oct-05 12:55N 50°02' W 125°15'0 0.0
2017-Oct-05 12:25N 50°02' W 125°15'0 0.0
2017-Oct-05 11:55N 50°02' W 125°15'0 0.0
2017-Oct-05 11:25N 50°02' W 125°15'0 0.0
2017-Oct-05 10:55N 50°02' W 125°15'0 0.0
2017-Oct-05 10:25N 50°02' W 125°15'0 0.0
2017-Oct-05 09:55N 50°02' W 125°15'0 0.0
2017-Oct-05 09:19N 50°02' W 125°15'0 0.0
2017-Oct-05 08:55N 50°02' W 125°15'0 0.0
2017-Oct-05 08:13N 50°02' W 125°15'0 0.0
2017-Oct-05 07:55N 50°02' W 125°15'0 0.0
2017-Oct-05 07:25N 50°02' W 125°15'0 0.0
2017-Oct-05 06:55N 50°02' W 125°15'0 0.0
2017-Oct-05 06:25N 50°02' W 125°15'0 0.0
2017-Oct-05 05:55N 50°02' W 125°15'0 0.0
2017-Oct-05 05:25N 50°02' W 125°15'0 0.0
2017-Oct-05 04:55N 50°02' W 125°15'0 0.0
2017-Oct-05 04:25N 50°02' W 125°15'0 0.0
2017-Oct-05 03:55N 50°02' W 125°15'0 0.0
2017-Oct-05 03:25N 50°02' W 125°15'0 0.0
2017-Oct-05 02:55N 50°02' W 125°15'0 0.0
2017-Oct-05 02:25N 50°02' W 125°15'0 0.0
2017-Oct-05 01:55N 50°02' W 125°15'0 0.0
2017-Oct-05 01:25N 50°02' W 125°15'0 0.0
2017-Oct-05 00:58N 50°02' W 125°15'0 0.0
2017-Oct-05 00:19N 50°02' W 125°15'0 0.0
2017-Oct-04 23:58N 50°02' W 125°15'0 0.0
2017-Oct-04 23:25N 50°02' W 125°15'0 0.0
2017-Oct-04 22:55N 50°02' W 125°15'0 0.0
2017-Oct-04 22:25N 50°02' W 125°15'0 0.0
2017-Oct-04 21:55N 50°02' W 125°15'0 0.0
2017-Oct-04 21:25N 50°02' W 125°15'0 0.0
2017-Oct-04 20:13N 50°02' W 125°15'0 0.0
2017-Oct-04 19:55N 50°02' W 125°15'0 0.0
2017-Oct-04 19:25N 50°02' W 125°15'0 0.0
2017-Oct-04 18:49N 50°02' W 125°15'0 0.1
2017-Oct-04 18:30N 50°02' W 125°15'4 7.9
2017-Oct-04 18:00N 50°06' W 125°17'1 0.6
2017-Oct-04 16:55N 50°06' W 125°17'410.6
2017-Oct-04 16:30N 50°02' W 125°14'1 2.1
2017-Oct-04 16:00N 50°01' W 125°14'0 0.0
2017-Oct-04 15:30N 50°01' W 125°14'0 0.0
2017-Oct-04 14:54N 50°01' W 125°14'0 0.0
2017-Oct-04 14:30N 50°01' W 125°14'0 0.0
2017-Oct-04 13:36N 50°01' W 125°14'0 0.0
2017-Oct-04 13:30N 50°01' W 125°14'0 0.0
2017-Oct-04 13:00N 50°01' W 125°14'0 0.0
2017-Oct-04 12:30N 50°01' W 125°14'0 0.0
2017-Oct-04 11:51N 50°01' W 125°14'0 0.0
2017-Oct-04 11:27N 50°01' W 125°14'0 0.0
2017-Oct-04 10:57N 50°01' W 125°14'0 0.0
2017-Oct-04 10:30N 50°01' W 125°14'0 0.0
2017-Oct-04 09:57N 50°01' W 125°14'0 0.0
2017-Oct-04 09:30N 50°01' W 125°14'0 0.0
2017-Oct-04 08:57N 50°01' W 125°14'0 0.0
2017-Oct-04 08:30N 50°01' W 125°14'0 0.0
2017-Oct-04 08:00N 50°01' W 125°14'0 0.0
2017-Oct-04 07:30N 50°01' W 125°14'0 0.0
2017-Oct-04 07:00N 50°01' W 125°14'0 0.0
2017-Oct-04 06:30N 50°01' W 125°14'0 0.0
2017-Oct-04 06:00N 50°01' W 125°14'0 0.0
2017-Oct-04 05:30N 50°01' W 125°14'0 0.0
2017-Oct-04 05:00N 50°01' W 125°14'0 0.0
2017-Oct-04 04:30N 50°01' W 125°14'0 0.0
2017-Oct-04 04:00N 50°01' W 125°14'0 0.0
2017-Oct-04 03:30N 50°01' W 125°14'0 0.0
2017-Oct-04 03:00N 50°01' W 125°14'0 0.0
2017-Oct-04 02:12N 50°01' W 125°14'0 0.0
2017-Oct-04 02:00N 50°01' W 125°14'0 0.0
2017-Oct-04 00:39N 50°01' W 125°14'0 0.0
2017-Oct-04 00:15N 50°01' W 125°14'0 0.0
2017-Oct-03 23:51N 50°01' W 125°14'0 0.0
2017-Oct-03 22:51N 50°01' W 125°14'0 0.0
2017-Oct-03 22:27N 50°01' W 125°14'0 0.0
2017-Oct-03 21:45N 50°01' W 125°14'0 0.0
2017-Oct-03 21:27N 50°01' W 125°14'0 0.0
2017-Oct-03 20:57N 50°01' W 125°14'0 0.0
2017-Oct-03 20:27N 50°01' W 125°14'0 0.0
2017-Oct-03 20:00N 50°01' W 125°14'0 0.0
2017-Oct-03 19:30N 50°01' W 125°14'0 0.0
2017-Oct-03 19:00N 50°01' W 125°14'0 0.0
2017-Oct-03 18:30N 50°01' W 125°14'0 0.0
2017-Oct-03 18:00N 50°01' W 125°14'0 0.0
2017-Oct-03 17:30N 50°01' W 125°14'0 0.0
2017-Oct-03 17:00N 50°01' W 125°14'0 0.0
2017-Oct-03 16:30N 50°01' W 125°14'0 0.0
2017-Oct-03 16:00N 50°01' W 125°14'0 0.0
2017-Oct-03 15:18N 50°01' W 125°14'0 0.0
2017-Oct-03 15:00N 50°01' W 125°14'0 0.0
2017-Oct-03 14:00N 50°01' W 125°14'0 0.0
2017-Oct-03 13:30N 50°01' W 125°14'0 0.0
2017-Oct-03 13:00N 50°01' W 125°14'0 0.0
2017-Oct-03 12:24N 50°01' W 125°14'0 0.0
2017-Oct-03 12:00N 50°01' W 125°14'0 0.0
2017-Oct-03 11:21N 50°01' W 125°14'0 0.0
2017-Oct-03 10:54N 50°01' W 125°14'0 0.0
2017-Oct-03 10:00N 50°01' W 125°14'0 0.0
2017-Oct-03 09:21N 50°01' W 125°14'0 0.0
2017-Oct-03 09:00N 50°01' W 125°14'0 0.0
2017-Oct-03 08:30N 50°01' W 125°14'0 0.0
2017-Oct-03 08:00N 50°01' W 125°14'0 0.0
2017-Oct-03 07:30N 50°01' W 125°14'0 0.0
2017-Oct-03 07:00N 50°01' W 125°14'0 0.0
2017-Oct-03 06:30N 50°01' W 125°14'0 0.0
2017-Oct-03 06:00N 50°01' W 125°14'0 0.0
2017-Oct-03 05:30N 50°01' W 125°14'0 0.0
2017-Oct-03 05:00N 50°01' W 125°14'0 0.0
2017-Oct-03 04:30N 50°01' W 125°14'0 0.0
2017-Oct-03 04:00N 50°01' W 125°14'0 0.0
2017-Oct-03 03:30N 50°01' W 125°14'0 0.0
2017-Oct-03 02:48N 50°01' W 125°14'0 0.0
2017-Oct-03 02:30N 50°01' W 125°14'0 0.0
2017-Oct-03 02:00N 50°01' W 125°14'0 0.0
2017-Oct-03 01:24N 50°01' W 125°14'0 0.0
2017-Oct-03 01:00N 50°01' W 125°14'0 0.0
2017-Oct-03 00:30N 50°01' W 125°14'0 0.0
2017-Oct-02 23:57N 50°01' W 125°14'  

Dump ship's entire track history